Busby, United Kingdom
Current Conditions -  °F | °C
As of 2:20 AM on Thursday 18 Dec 2014 (Local Time) from EGPF Reporting Station
Overcast Overcast  
Wind Chill: 52°   Ceiling: 1400
Heat Index: 52°   Visibility: 6mi
Dew Point: 48°   Wind: 18mph
Humidity: 88%   Direction: 220°SW
Pressure: 29.44"   Gusts: NA
Location:  55.78°N, 4.27°W
Report Text: EGPF 180220Z AUTO 22016KT 9999 BKN014 OVC024 11/09 Q0997
Loading
Personal Weather Stations






























Interactive Weather Map New forecast layout! Learn more

10-Day Weather Forecast

Advertisements
Track Severe Weather on mobile